createdAt,value
2023-06-22T00:01:32.729Z,6.85
2023-06-22T00:03:35.210Z,6.40
2023-06-22T00:05:37.427Z,7.30
2023-06-22T00:07:39.966Z,5.97
2023-06-22T00:09:42.218Z,6.40
2023-06-22T00:11:44.627Z,6.40
2023-06-22T00:13:46.922Z,6.82
2023-06-22T00:15:49.399Z,7.30
2023-06-22T00:17:52.450Z,6.03
2023-06-22T00:19:56.353Z,5.93
2023-06-22T00:22:01.417Z,6.95
2023-06-22T00:24:04.196Z,6.85
2023-06-22T00:26:06.324Z,6.10
2023-06-22T00:28:09.112Z,6.45
2023-06-22T00:30:11.825Z,5.97
2023-06-22T00:32:14.354Z,6.13
2023-06-22T00:34:17.138Z,6.68
2023-06-22T00:36:20.293Z,7.28
2023-06-22T00:38:22.627Z,5.93
2023-06-22T00:40:25.259Z,7.20
2023-06-22T00:42:27.451Z,6.93
2023-06-22T00:44:29.952Z,6.50
2023-06-22T00:46:32.774Z,7.75
2023-06-22T00:48:38.120Z,6.20
2023-06-22T00:50:41.625Z,7.55
2023-06-22T00:52:45.686Z,6.95
2023-06-22T00:54:52.810Z,7.25
2023-06-22T00:56:57.366Z,7.60
2023-06-22T00:59:01.033Z,7.15
2023-06-22T01:01:03.618Z,7.00
2023-06-22T01:03:10.283Z,7.20
2023-06-22T01:05:14.920Z,6.72
2023-06-22T01:07:43.026Z,6.25
2023-06-22T01:10:03.531Z,6.43
2023-06-22T01:12:08.531Z,6.78
2023-06-22T01:14:25.675Z,6.72
2023-06-22T01:16:36.432Z,7.32
2023-06-22T01:18:43.070Z,6.78
2023-06-22T01:20:45.821Z,6.65
2023-06-22T01:23:09.737Z,7.60
2023-06-22T01:25:21.792Z,7.45
2023-06-22T01:27:42.559Z,7.50
2023-06-22T01:29:45.707Z,7.13
2023-06-22T01:31:50.781Z,7.32
2023-06-22T01:33:56.751Z,7.40
2023-06-22T01:35:59.916Z,7.10
2023-06-22T01:38:02.680Z,7.60
2023-06-22T01:40:08.256Z,7.15
2023-06-22T01:42:11.317Z,7.22
2023-06-22T01:44:14.071Z,7.30
2023-06-22T01:46:17.230Z,7.35
2023-06-22T01:48:20.776Z,7.40
2023-06-22T01:50:23.164Z,7.97
2023-06-22T01:52:25.713Z,7.70
2023-06-22T01:54:27.888Z,7.78
2023-06-22T01:56:30.492Z,8.32
2023-06-22T01:58:34.729Z,7.63
2023-06-22T02:00:40.517Z,7.65
2023-06-22T02:03:06.887Z,7.78
2023-06-22T02:05:13.048Z,8.65
2023-06-22T02:07:18.471Z,7.88
2023-06-22T02:09:23.454Z,7.22
2023-06-22T02:11:28.864Z,7.72
2023-06-22T02:13:32.557Z,6.35
2023-06-22T02:15:35.349Z,7.68
2023-06-22T02:17:38.006Z,8.20
2023-06-22T02:19:42.621Z,7.95
2023-06-22T02:21:45.542Z,8.18
2023-06-22T02:23:48.208Z,7.55
2023-06-22T02:25:50.810Z,7.70
2023-06-22T02:27:52.962Z,6.63
2023-06-22T02:29:55.399Z,9.05
2023-06-22T02:31:57.681Z,7.60
2023-06-22T02:34:00.765Z,7.43
2023-06-22T02:36:06.410Z,7.32
2023-06-22T02:38:09.300Z,7.40
2023-06-22T02:40:12.034Z,6.72
2023-06-22T02:42:14.492Z,7.30
2023-06-22T02:44:16.991Z,8.02
2023-06-22T02:46:19.451Z,8.00
2023-06-22T02:48:21.582Z,7.68
2023-06-22T02:50:24.311Z,7.63
2023-06-22T02:52:26.504Z,8.45
2023-06-22T02:54:28.885Z,9.25
2023-06-22T02:56:31.751Z,7.70
2023-06-22T02:58:39.726Z,8.00
2023-06-22T03:00:42.070Z,7.90
2023-06-22T03:02:51.505Z,8.52
2023-06-22T03:04:55.034Z,8.18
2023-06-22T03:06:57.625Z,8.70
2023-06-22T03:09:05.186Z,7.90
2023-06-22T03:11:08.946Z,9.18
2023-06-22T03:13:11.150Z,8.95
2023-06-22T03:15:14.354Z,8.82
2023-06-22T03:17:16.560Z,9.35
2023-06-22T03:19:19.087Z,8.43
2023-06-22T03:21:23.445Z,8.88
2023-06-22T03:23:25.923Z,9.15
2023-06-22T03:25:28.026Z,8.20
2023-06-22T03:27:30.547Z,9.30
2023-06-22T03:29:32.758Z,9.35
2023-06-22T03:31:35.285Z,9.15
2023-06-22T03:33:37.894Z,9.27
2023-06-22T03:35:40.286Z,9.23
2023-06-22T03:37:42.580Z,8.93
2023-06-22T03:39:44.971Z,8.60
2023-06-22T03:41:47.127Z,10.25
2023-06-22T03:43:49.643Z,9.30
2023-06-22T03:45:51.830Z,8.43
2023-06-22T03:47:54.696Z,9.70
2023-06-22T03:49:56.890Z,9.00
2023-06-22T03:51:59.297Z,8.48
2023-06-22T03:54:01.495Z,8.98
2023-06-22T03:56:04.031Z,10.15
2023-06-22T03:58:06.962Z,9.55
2023-06-22T04:00:11.389Z,9.70
2023-06-22T04:02:13.754Z,9.77
2023-06-22T04:04:16.266Z,10.18
2023-06-22T04:06:18.542Z,9.30
2023-06-22T04:08:22.067Z,9.85
2023-06-22T04:10:24.196Z,9.40
2023-06-22T04:12:26.751Z,8.85
2023-06-22T04:14:28.973Z,9.02
2023-06-22T04:16:31.487Z,8.90
2023-06-22T04:18:33.652Z,9.52
2023-06-22T04:20:36.471Z,8.52
2023-06-22T04:22:38.796Z,9.77
2023-06-22T04:24:41.216Z,8.18
2023-06-22T04:26:43.453Z,7.57
2023-06-22T04:28:52.602Z,9.30
2023-06-22T04:30:59.461Z,8.23
2023-06-22T04:33:02.207Z,8.82
2023-06-22T04:35:08.001Z,8.82
2023-06-22T04:37:10.737Z,8.45
2023-06-22T04:39:12.992Z,8.98
2023-06-22T04:41:25.386Z,8.80
2023-06-22T04:43:31.717Z,8.38
2023-06-22T04:45:34.585Z,8.15
2023-06-22T04:47:40.593Z,9.60
2023-06-22T04:49:44.607Z,9.10
2023-06-22T04:51:46.839Z,7.63
2023-06-22T04:53:49.294Z,8.35
2023-06-22T04:55:54.340Z,8.25
2023-06-22T04:57:56.806Z,7.63
2023-06-22T05:00:15.601Z,9.25
2023-06-22T05:02:18.049Z,7.25
2023-06-22T05:04:20.655Z,7.97
2023-06-22T05:06:25.939Z,7.25
2023-06-22T05:08:29.906Z,7.10
2023-06-22T05:10:32.695Z,6.63
2023-06-22T05:12:35.335Z,7.28
2023-06-22T05:14:37.808Z,7.70
2023-06-22T05:16:40.671Z,7.03
2023-06-22T05:18:44.707Z,7.07
2023-06-22T05:20:47.102Z,7.22
2023-06-22T05:22:49.592Z,6.07
2023-06-22T05:24:51.739Z,6.63
2023-06-22T05:26:54.175Z,6.78
2023-06-22T05:28:56.775Z,7.10
2023-06-22T05:30:59.474Z,7.13
2023-06-22T05:33:01.693Z,6.57
2023-06-22T05:35:05.238Z,6.30
2023-06-22T05:37:07.476Z,6.57
2023-06-22T05:39:17.283Z,7.10
2023-06-22T05:41:19.888Z,6.45
2023-06-22T05:43:22.350Z,6.60
2023-06-22T05:45:24.438Z,5.25
2023-06-22T05:47:26.906Z,6.10
2023-06-22T05:49:33.816Z,6.78
2023-06-22T05:51:36.373Z,7.47
2023-06-22T05:53:38.504Z,6.47
2023-06-22T05:55:41.605Z,6.93
2023-06-22T05:57:43.816Z,6.35
2023-06-22T05:59:46.330Z,6.90
2023-06-22T06:01:51.543Z,7.90
2023-06-22T06:03:54.184Z,6.97
2023-06-22T06:05:56.590Z,6.78
2023-06-22T06:07:59.651Z,6.13
2023-06-22T06:10:02.082Z,5.68
2023-06-22T06:12:05.020Z,6.30
2023-06-22T06:14:07.593Z,6.50
2023-06-22T06:16:10.038Z,5.85
2023-06-22T06:18:12.333Z,7.05
2023-06-22T06:20:15.118Z,6.78
2023-06-22T06:22:17.405Z,7.85
2023-06-22T06:24:19.948Z,7.38
2023-06-22T06:26:30.546Z,6.22
2023-06-22T06:28:33.078Z,7.00
2023-06-22T06:30:36.063Z,7.60
2023-06-22T06:32:39.416Z,7.00
2023-06-22T06:34:41.954Z,6.68
2023-06-22T06:36:45.577Z,8.82
2023-06-22T06:38:48.547Z,7.13
2023-06-22T06:40:50.982Z,6.40
2023-06-22T06:42:53.234Z,8.48
2023-06-22T06:44:56.433Z,7.65
2023-06-22T06:46:58.691Z,8.18
2023-06-22T06:49:01.163Z,7.45
2023-06-22T06:51:03.711Z,8.77
2023-06-22T06:53:06.977Z,8.63
2023-06-22T06:55:13.096Z,8.70
2023-06-22T06:57:16.765Z,8.55
2023-06-22T06:59:18.955Z,9.45
2023-06-22T07:01:22.721Z,9.52
2023-06-22T07:03:25.221Z,8.70
2023-06-22T07:05:27.648Z,9.43
2023-06-22T07:07:29.829Z,9.00
2023-06-22T07:09:32.242Z,8.65
2023-06-22T07:11:34.613Z,9.48
2023-06-22T07:13:37.127Z,9.82
2023-06-22T07:15:39.374Z,9.20
2023-06-22T07:17:42.635Z,8.82
2023-06-22T07:19:44.945Z,8.98
2023-06-22T07:21:47.409Z,8.50
2023-06-22T07:23:49.642Z,8.63
2023-06-22T07:25:52.208Z,8.52
2023-06-22T07:28:07.448Z,8.93
2023-06-22T07:30:10.956Z,9.80
2023-06-22T07:32:13.220Z,9.15
2023-06-22T07:34:15.597Z,9.43
2023-06-22T07:36:18.801Z,8.57
2023-06-22T07:38:21.269Z,9.05
2023-06-22T07:40:23.638Z,9.35
2023-06-22T07:42:29.970Z,9.05
2023-06-22T07:44:32.527Z,9.23
2023-06-22T07:46:34.930Z,9.70
2023-06-22T07:48:38.878Z,10.35
2023-06-22T07:50:41.070Z,9.75
2023-06-22T07:52:43.519Z,11.45
2023-06-22T07:54:45.667Z,10.95
2023-06-22T07:56:48.221Z,11.00
2023-06-22T07:58:50.418Z,10.15
2023-06-22T08:00:52.836Z,10.38
2023-06-22T08:02:55.168Z,11.45
2023-06-22T08:05:10.490Z,11.07
2023-06-22T08:07:21.236Z,10.52
2023-06-22T08:09:23.853Z,10.65
2023-06-22T08:11:26.684Z,10.63
2023-06-22T08:13:29.243Z,10.95
2023-06-22T08:15:31.700Z,11.57
2023-06-22T08:17:34.785Z,11.02
2023-06-22T08:19:38.534Z,10.73
2023-06-22T08:21:40.961Z,11.90
2023-06-22T08:23:43.094Z,11.93
2023-06-22T08:25:45.683Z,12.82
2023-06-22T08:27:49.512Z,13.10
2023-06-22T08:29:52.870Z,12.77
2023-06-22T08:31:55.002Z,11.13
2023-06-22T08:33:57.667Z,11.07
2023-06-22T08:36:01.223Z,11.70
2023-06-22T08:38:03.791Z,13.43
2023-06-22T08:40:10.622Z,11.77
2023-06-22T08:42:13.164Z,12.88
2023-06-22T08:44:16.516Z,12.35
2023-06-22T08:46:23.501Z,12.40
2023-06-22T08:48:25.706Z,11.80
2023-06-22T08:50:28.470Z,11.82
2023-06-22T08:52:30.962Z,11.57
2023-06-22T08:54:37.888Z,11.93
2023-06-22T08:56:40.100Z,11.35
2023-06-22T08:58:42.510Z,11.75
2023-06-22T09:00:44.687Z,11.68
2023-06-22T09:02:48.534Z,11.13
2023-06-22T09:04:57.115Z,11.52
2023-06-22T09:06:59.660Z,11.50
2023-06-22T09:09:01.949Z,10.75
2023-06-22T09:11:04.511Z,11.10
2023-06-22T09:13:06.728Z,11.27
2023-06-22T09:15:13.248Z,11.80
2023-06-22T09:17:17.927Z,12.38
2023-06-22T09:19:20.471Z,10.82
2023-06-22T09:21:23.152Z,12.00
2023-06-22T09:23:25.613Z,11.75
2023-06-22T09:25:28.096Z,10.95
2023-06-22T09:27:30.909Z,10.93
2023-06-22T09:29:35.735Z,11.55
2023-06-22T09:31:38.332Z,11.52
2023-06-22T09:33:41.968Z,11.40
2023-06-22T09:35:44.498Z,10.40
2023-06-22T09:37:47.050Z,12.25
2023-06-22T09:39:49.540Z,10.50
2023-06-22T09:41:52.631Z,10.57
2023-06-22T09:43:56.964Z,11.50
2023-06-22T09:45:59.618Z,11.55
2023-06-22T09:48:02.110Z,11.55
2023-06-22T09:50:04.744Z,11.02
2023-06-22T09:52:07.740Z,10.75
2023-06-22T09:54:09.954Z,10.75
2023-06-22T09:56:16.072Z,11.93
2023-06-22T09:58:18.657Z,10.93
2023-06-22T10:00:21.271Z,11.25
2023-06-22T10:02:23.938Z,11.60
2023-06-22T10:04:27.134Z,10.68
2023-06-22T10:06:29.592Z,11.98
2023-06-22T10:08:32.149Z,10.82
2023-06-22T10:10:34.474Z,12.00
2023-06-22T10:12:36.884Z,10.80
2023-06-22T10:14:39.122Z,11.27
2023-06-22T10:16:42.261Z,13.30
2023-06-22T10:18:45.040Z,13.27
2023-06-22T10:20:51.683Z,12.65
2023-06-22T10:22:53.881Z,12.88
2023-06-22T10:24:56.343Z,13.90
2023-06-22T10:26:58.517Z,13.20
2023-06-22T10:31:09.711Z,13.73
2023-06-22T10:33:12.942Z,13.48
2023-06-22T10:35:17.312Z,13.48
2023-06-22T10:37:19.972Z,14.02
2023-06-22T10:39:22.101Z,14.15
2023-06-22T10:41:24.575Z,13.85
2023-06-22T10:43:26.733Z,12.60
2023-06-22T10:45:29.716Z,11.77
2023-06-22T10:47:32.436Z,13.18
2023-06-22T10:49:35.075Z,15.32
2023-06-22T10:51:37.251Z,14.07
2023-06-22T10:53:39.780Z,15.35
2023-06-22T10:57:49.783Z,13.35
2023-06-22T10:59:52.126Z,12.43
2023-06-22T11:01:54.920Z,11.68
2023-06-22T11:03:57.153Z,11.60
2023-06-22T11:05:59.643Z,12.25
2023-06-22T11:08:01.822Z,11.50
2023-06-22T11:10:04.914Z,12.27
2023-06-22T11:12:07.777Z,10.90
2023-06-22T11:14:10.222Z,11.05
2023-06-22T11:16:12.451Z,10.27
2023-06-22T11:18:14.993Z,10.40
2023-06-22T11:20:17.419Z,10.05
2023-06-22T11:22:19.896Z,10.65
2023-06-22T11:24:22.255Z,9.75
2023-06-22T11:26:24.687Z,8.93
2023-06-22T11:28:26.836Z,9.57
2023-06-22T11:30:29.724Z,10.38
2023-06-22T11:32:32.274Z,9.50
2023-06-22T11:34:35.310Z,9.75
2023-06-22T11:36:37.526Z,9.68
2023-06-22T11:38:40.456Z,8.65
2023-06-22T11:40:42.683Z,7.78
2023-06-22T11:42:45.490Z,8.55
2023-06-22T11:44:47.654Z,8.77
2023-06-22T11:46:50.143Z,10.65
2023-06-22T11:48:52.305Z,11.45
2023-06-22T11:50:57.288Z,13.10
2023-06-22T11:53:00.577Z,13.05
2023-06-22T11:55:04.992Z,15.13
2023-06-22T11:57:07.129Z,14.05
2023-06-22T11:59:09.576Z,11.02
2023-06-22T12:01:11.741Z,13.48
2023-06-22T12:03:15.979Z,14.82
2023-06-22T12:05:21.725Z,15.52
2023-06-22T12:07:24.213Z,17.23
2023-06-22T12:09:26.401Z,17.45
2023-06-22T12:11:28.833Z,17.45
2023-06-22T12:13:31.035Z,16.35
2023-06-22T12:15:33.498Z,15.50
2023-06-22T12:17:35.961Z,16.48
2023-06-22T12:19:38.510Z,13.88
2023-06-22T12:21:41.969Z,12.88
2023-06-22T12:23:44.448Z,13.65
2023-06-22T12:25:47.112Z,14.23
2023-06-22T12:27:50.251Z,13.38
2023-06-22T12:29:52.697Z,10.80
2023-06-22T12:31:55.220Z,12.35
2023-06-22T12:33:57.365Z,14.13
2023-06-22T12:35:59.860Z,11.43
2023-06-22T12:38:02.155Z,9.55
2023-06-22T12:40:05.325Z,10.25
2023-06-22T12:42:09.924Z,7.32
2023-06-22T12:44:12.640Z,5.32
2023-06-22T12:46:14.862Z,5.78
2023-06-22T12:48:18.121Z,6.38
2023-06-22T12:50:20.284Z,7.97
2023-06-22T12:52:22.734Z,9.23
2023-06-22T12:54:24.907Z,9.77
2023-06-22T12:56:27.397Z,8.30
2023-06-22T12:58:29.608Z,9.52
2023-06-22T13:00:32.467Z,8.18
2023-06-22T13:02:34.898Z,7.22
2023-06-22T13:04:37.547Z,8.50
2023-06-22T13:06:39.743Z,9.35
2023-06-22T13:09:14.375Z,9.63
2023-06-22T13:11:04.506Z,9.75
2023-06-22T13:13:06.915Z,10.20
2023-06-22T13:15:09.354Z,9.27
2023-06-22T13:17:12.086Z,8.18
2023-06-22T13:19:14.242Z,7.63
2023-06-22T13:21:16.650Z,8.25
2023-06-22T13:23:18.819Z,6.93
2023-06-22T13:25:24.209Z,7.38
2023-06-22T13:27:26.628Z,6.30
2023-06-22T13:29:29.078Z,7.05
2023-06-22T13:31:31.343Z,6.05
2023-06-22T13:33:33.880Z,5.78
2023-06-22T13:35:39.056Z,5.65
2023-06-22T13:37:41.513Z,5.82
2023-06-22T13:39:43.663Z,6.38
2023-06-22T13:41:46.217Z,6.32
2023-06-22T13:43:48.445Z,5.82
2023-06-22T13:45:51.095Z,6.28
2023-06-22T13:47:53.598Z,6.50
2023-06-22T13:49:56.154Z,6.43
2023-06-22T13:51:58.253Z,6.40
2023-06-22T13:54:00.610Z,6.13
2023-06-22T13:56:02.740Z,5.90
2023-06-22T13:58:05.142Z,6.57
2023-06-22T14:00:09.486Z,5.97
2023-06-22T14:02:11.949Z,6.00
2023-06-22T14:04:14.183Z,6.70
2023-06-22T14:06:16.645Z,6.68
2023-06-22T14:08:39.668Z,6.00
2023-06-22T14:10:41.214Z,5.72
2023-06-22T14:12:43.390Z,5.38
2023-06-22T14:14:46.138Z,5.85
2023-06-22T14:16:50.500Z,6.18
2023-06-22T14:18:54.488Z,5.35
2023-06-22T14:20:58.118Z,5.85
2023-06-22T14:23:00.584Z,6.40
2023-06-22T14:25:03.066Z,5.80
2023-06-22T14:27:08.885Z,5.22
2023-06-22T14:29:11.019Z,6.32
2023-06-22T14:31:13.602Z,6.32
2023-06-22T14:33:15.855Z,5.05
2023-06-22T14:35:18.297Z,4.72
2023-06-22T14:37:20.539Z,5.30
2023-06-22T14:39:22.993Z,5.63
2023-06-22T14:41:25.260Z,5.53
2023-06-22T14:43:27.854Z,5.35
2023-06-22T14:45:30.071Z,4.78
2023-06-22T14:47:32.747Z,4.40
2023-06-22T14:49:35.535Z,3.80
2023-06-22T14:51:37.975Z,3.78
2023-06-22T14:53:40.147Z,3.70
2023-06-22T14:55:42.770Z,3.65
2023-06-22T14:57:45.092Z,3.10
2023-06-22T14:59:49.747Z,3.72
2023-06-22T15:01:52.157Z,3.58
2023-06-22T15:03:54.775Z,3.67
2023-06-22T15:05:57.717Z,2.80
2023-06-22T15:08:00.162Z,4.20
2023-06-22T15:10:02.427Z,3.05
2023-06-22T15:12:07.025Z,2.67
2023-06-22T15:14:10.017Z,3.00
2023-06-22T15:16:14.686Z,2.83
2023-06-22T15:18:17.609Z,2.85
2023-06-22T15:20:20.041Z,2.40
2023-06-22T15:22:22.321Z,3.03
2023-06-22T15:24:24.793Z,2.72
2023-06-22T15:26:26.929Z,2.40
2023-06-22T15:28:30.508Z,2.70
2023-06-22T15:30:32.905Z,2.25
2023-06-22T15:32:35.406Z,2.53
2023-06-22T15:34:37.607Z,2.60
2023-06-22T15:36:40.038Z,2.25
2023-06-22T15:38:42.186Z,2.25
2023-06-22T15:40:44.794Z,2.17
2023-06-22T15:42:49.695Z,2.25
2023-06-22T15:44:54.774Z,2.42
2023-06-22T15:46:56.954Z,1.90
2023-06-22T15:48:59.412Z,2.22
2023-06-22T15:51:02.754Z,2.08
2023-06-22T15:53:05.179Z,2.22
2023-06-22T15:55:09.003Z,2.30
2023-06-22T15:57:14.003Z,2.00
2023-06-22T15:59:16.224Z,2.13
2023-06-22T16:01:18.970Z,1.73
2023-06-22T16:03:21.355Z,1.88
2023-06-22T16:05:23.984Z,1.77
2023-06-22T16:07:26.365Z,2.47
2023-06-22T16:09:29.652Z,1.55
2023-06-22T16:11:31.892Z,1.95
2023-06-22T16:13:34.670Z,2.30
2023-06-22T16:15:36.882Z,2.55
2023-06-22T16:17:39.576Z,1.80
2023-06-22T16:19:41.875Z,2.85
2023-06-22T16:21:44.279Z,2.10
2023-06-22T16:23:46.507Z,2.05
2023-06-22T16:25:49.090Z,1.85
2023-06-22T16:27:51.270Z,2.15
2023-06-22T16:29:53.669Z,2.10
2023-06-22T16:31:55.912Z,1.90
2023-06-22T16:33:58.330Z,1.80
2023-06-22T16:36:01.392Z,2.20
2023-06-22T16:38:04.117Z,2.13
2023-06-22T16:40:06.996Z,1.60
2023-06-22T16:42:10.270Z,1.80
2023-06-22T16:44:12.461Z,1.90
2023-06-22T16:46:14.958Z,1.92
2023-06-22T16:48:17.100Z,1.98
2023-06-22T16:50:20.143Z,2.08
2023-06-22T16:52:23.454Z,1.80
2023-06-22T16:54:26.391Z,1.70
2023-06-22T16:56:29.521Z,2.00
2023-06-22T16:58:32.496Z,2.10
2023-06-22T17:00:35.863Z,2.05
2023-06-22T17:03:06.335Z,2.30
2023-06-22T17:05:09.228Z,2.08
2023-06-22T17:07:14.999Z,1.73
2023-06-22T17:09:17.332Z,2.28
2023-06-22T17:11:20.216Z,1.70
2023-06-22T17:13:22.370Z,2.20
2023-06-22T17:15:26.361Z,2.83
2023-06-22T17:17:31.480Z,1.50
2023-06-22T17:19:34.012Z,2.25
2023-06-22T17:21:36.483Z,1.90
2023-06-22T17:23:39.229Z,1.73
2023-06-22T17:25:43.869Z,2.13
2023-06-22T17:27:53.613Z,2.20
2023-06-22T17:30:18.934Z,2.05
2023-06-22T17:32:22.463Z,2.00
2023-06-22T17:34:29.560Z,1.95
2023-06-22T17:36:32.098Z,2.28
2023-06-22T17:38:37.530Z,2.00
2023-06-22T17:40:41.481Z,2.33
2023-06-22T17:42:44.289Z,2.30
2023-06-22T17:44:46.926Z,2.13
2023-06-22T17:47:01.878Z,2.03
2023-06-22T17:49:12.307Z,2.15
2023-06-22T17:51:16.309Z,2.00
2023-06-22T17:53:19.319Z,2.20
2023-06-22T17:55:23.125Z,2.88
2023-06-22T17:57:25.360Z,4.90
2023-06-22T17:59:30.383Z,3.17
2023-06-22T18:01:39.167Z,3.10
2023-06-22T18:03:41.572Z,2.65
2023-06-22T18:05:48.574Z,3.35
2023-06-22T18:07:53.305Z,2.53
2023-06-22T18:09:57.459Z,2.38
2023-06-22T18:12:03.279Z,2.85
2023-06-22T18:14:06.516Z,2.58
2023-06-22T18:16:08.829Z,2.35
2023-06-22T18:18:12.611Z,2.50
2023-06-22T18:20:15.346Z,2.72
2023-06-22T18:22:19.106Z,2.00
2023-06-22T18:24:21.509Z,2.92
2023-06-22T18:26:29.437Z,2.80
2023-06-22T18:28:32.299Z,3.10
2023-06-22T18:30:35.350Z,2.63
2023-06-22T18:32:40.250Z,2.58
2023-06-22T18:34:44.302Z,2.85
2023-06-22T18:36:56.960Z,2.95
2023-06-22T18:39:04.242Z,3.03
2023-06-22T18:41:06.701Z,2.88
2023-06-22T18:43:09.173Z,2.50
2023-06-22T18:45:28.984Z,2.67
2023-06-22T18:47:32.557Z,2.42
2023-06-22T18:49:49.445Z,2.38
2023-06-22T18:52:02.568Z,2.85
2023-06-22T18:54:05.850Z,2.58
2023-06-22T18:56:15.998Z,3.03
2023-06-22T18:58:24.390Z,2.55
2023-06-22T19:00:31.914Z,2.97
2023-06-22T19:02:52.708Z,2.38
2023-06-22T19:05:15.756Z,2.67
2023-06-22T19:07:17.914Z,3.15
2023-06-22T19:09:20.651Z,3.13
2023-06-22T19:11:28.707Z,2.88
2023-06-22T19:13:31.730Z,3.10
2023-06-22T19:15:34.863Z,2.72
2023-06-22T19:17:37.754Z,2.88
2023-06-22T19:19:41.529Z,3.30
2023-06-22T19:21:44.080Z,3.92
2023-06-22T19:23:46.248Z,3.22
2023-06-22T19:25:49.497Z,3.17
2023-06-22T19:27:53.695Z,3.47
2023-06-22T19:29:57.100Z,2.80
2023-06-22T19:31:59.495Z,3.10
2023-06-22T19:34:06.062Z,3.05
2023-06-22T19:36:08.571Z,3.28
2023-06-22T19:38:10.973Z,3.65
2023-06-22T19:40:14.690Z,3.25
2023-06-22T19:42:17.560Z,5.03
2023-06-22T19:44:19.709Z,5.20
2023-06-22T19:46:30.194Z,5.00
2023-06-22T19:48:32.824Z,4.60
2023-06-22T19:50:35.830Z,4.32
2023-06-22T19:52:41.073Z,4.38
2023-06-22T19:54:44.080Z,4.70
2023-06-22T19:56:46.292Z,4.45
2023-06-22T19:58:48.832Z,4.57
2023-06-22T20:00:57.512Z,4.72
2023-06-22T20:03:00.153Z,3.58
2023-06-22T20:05:10.070Z,4.72
2023-06-22T20:07:14.399Z,4.07
2023-06-22T20:09:16.996Z,4.20
2023-06-22T20:11:30.255Z,3.70
2023-06-22T20:13:32.826Z,3.95
2023-06-22T20:15:44.074Z,4.18
2023-06-22T20:17:49.041Z,4.65
2023-06-22T20:19:54.632Z,4.47
2023-06-22T20:21:56.947Z,4.60
2023-06-22T20:24:07.362Z,4.25
2023-06-22T20:26:12.581Z,4.57
2023-06-22T20:28:17.224Z,3.75
2023-06-22T20:30:21.774Z,4.28
2023-06-22T20:32:24.235Z,4.47
2023-06-22T20:34:26.344Z,3.60
2023-06-22T20:36:28.834Z,4.38
2023-06-22T20:38:33.769Z,3.55
2023-06-22T20:40:36.302Z,4.20
2023-06-22T20:42:38.745Z,3.65
2023-06-22T20:44:41.243Z,4.22
2023-06-22T20:46:46.913Z,3.85
2023-06-22T20:48:50.979Z,4.10
2023-06-22T20:50:58.614Z,4.07
2023-06-22T20:53:03.155Z,3.78
2023-06-22T20:55:05.558Z,3.60
2023-06-22T20:57:08.084Z,3.80
2023-06-22T20:59:10.284Z,4.32
2023-06-22T21:01:19.184Z,3.45
2023-06-22T21:03:21.907Z,3.53
2023-06-22T21:05:24.518Z,3.55
2023-06-22T21:07:26.675Z,2.92
2023-06-22T21:09:35.066Z,3.53
2023-06-22T21:11:44.635Z,3.35
2023-06-22T21:13:47.194Z,3.38
2023-06-22T21:15:49.377Z,3.30
2023-06-22T21:17:51.926Z,3.60
2023-06-22T21:19:54.194Z,3.58
2023-06-22T21:21:56.710Z,4.15
2023-06-22T21:23:58.906Z,3.13
2023-06-22T21:26:01.423Z,3.25
2023-06-22T21:28:04.077Z,3.85
2023-06-22T21:30:08.955Z,3.63
2023-06-22T21:32:11.276Z,3.42
2023-06-22T21:34:13.740Z,4.10
2023-06-22T21:36:15.920Z,3.30
2023-06-22T21:38:18.482Z,3.25
2023-06-22T21:40:20.704Z,4.07
2023-06-22T21:42:27.847Z,4.10
2023-06-22T21:44:30.091Z,4.53
2023-06-22T21:46:32.821Z,3.83
2023-06-22T21:48:35.060Z,4.47
2023-06-22T21:50:37.549Z,4.53
2023-06-22T21:52:39.833Z,4.15
2023-06-22T21:54:42.193Z,4.38
2023-06-22T21:56:44.388Z,4.45
2023-06-22T21:58:47.011Z,3.85
2023-06-22T22:00:49.371Z,4.10
2023-06-22T22:02:51.869Z,4.40
2023-06-22T22:04:54.253Z,5.13
2023-06-22T22:06:57.762Z,4.90
2023-06-22T22:08:59.859Z,4.07
2023-06-22T22:11:03.867Z,5.32
2023-06-22T22:13:05.999Z,5.28
2023-06-22T22:15:09.359Z,5.47
2023-06-22T22:17:12.030Z,5.32
2023-06-22T22:19:16.365Z,4.55
2023-06-22T22:21:19.781Z,5.00
2023-06-22T22:23:27.316Z,5.68
2023-06-22T22:25:30.623Z,5.18
2023-06-22T22:27:33.234Z,5.30
2023-06-22T22:29:35.359Z,5.68
2023-06-22T22:31:40.723Z,5.05
2023-06-22T22:33:43.286Z,5.43
2023-06-22T22:35:46.112Z,5.32
2023-06-22T22:37:48.222Z,5.72
2023-06-22T22:39:50.746Z,5.35
2023-06-22T22:41:52.841Z,5.70
2023-06-22T22:43:59.406Z,6.07
2023-06-22T22:46:01.879Z,7.13
2023-06-22T22:48:04.644Z,6.07
2023-06-22T22:50:08.453Z,5.90
2023-06-22T22:52:10.891Z,6.07
2023-06-22T22:54:13.080Z,6.10
2023-06-22T22:56:15.886Z,5.78
2023-06-22T22:58:18.134Z,5.70
2023-06-22T23:00:20.617Z,5.82
2023-06-22T23:02:25.627Z,5.78
2023-06-22T23:04:28.192Z,6.10
2023-06-22T23:06:30.401Z,5.65
2023-06-22T23:08:32.906Z,6.00
2023-06-22T23:10:35.290Z,5.25
2023-06-22T23:12:38.387Z,5.80
2023-06-22T23:14:42.168Z,5.47
2023-06-22T23:16:44.998Z,6.38
2023-06-22T23:18:47.214Z,5.45
2023-06-22T23:20:51.486Z,6.75
2023-06-22T23:22:58.630Z,5.45
2023-06-22T23:25:01.089Z,5.43
2023-06-22T23:27:03.322Z,6.35
2023-06-22T23:29:06.116Z,6.22
2023-06-22T23:31:10.151Z,6.50
2023-06-22T23:33:12.672Z,6.18
2023-06-22T23:35:14.919Z,6.10
2023-06-22T23:37:17.306Z,6.07
2023-06-22T23:39:19.389Z,6.45
2023-06-22T23:41:22.575Z,6.80
2023-06-22T23:43:26.225Z,5.53
2023-06-22T23:45:28.684Z,6.10
2023-06-22T23:47:31.207Z,6.65
2023-06-22T23:49:33.767Z,6.65
2023-06-22T23:51:38.044Z,6.28
2023-06-22T23:53:41.964Z,6.88
2023-06-22T23:55:44.190Z,5.40
2023-06-22T23:57:47.161Z,5.97
2023-06-22T23:59:51.884Z,6.35
